CZVL

Details ICAO CZVL
Name EDMONTON VILLENEUVE
Region Canada
Timezone America/Edmonton (UTC-7.0)
Plans Departing 14
Arriving 9
Stats Elevation 2,255 ft / 687 m (AMSL)
Location 53.662556° -113.847071°
Runways 2
Magnetic Variation 14.538° E
Sunrise 2017-12-11 15:44:06 UTC / 2017-12-11 08:44:06 Local
Sunset 2017-12-11 23:16:23 UTC / 2017-12-11 16:16:23 Local
Advertisement - Login to hide

Runways

ID Width Length Bearing (true) Bearing (mag) Surface Threshold Offset Overrun Length
08 100 ft / 30 m 3,620 ft / 1,103 m 102.63° 88.09° Asphalt 0 ft / 0 m 0 ft / 0 m
16 100 ft / 30 m 3,501 ft / 1,067 m 180.91° 166.37° Asphalt 0 ft / 0 m 0 ft / 0 m
26 100 ft / 30 m 3,620 ft / 1,103 m 282.64° 268.10° Asphalt 0 ft / 0 m 0 ft / 0 m
34 100 ft / 30 m 3,501 ft / 1,067 m 0.91° 346.37° Asphalt 0 ft / 0 m 0 ft / 0 m

Map

Weather


0- 5 10 15 20 25 30 35+ Temperature / ° C

Clouds and Precipitation
Forecast for 2017-12-12 00:00 UTC. Updated 25 minutes ago

Ground ~20,000 ft ~40,000 ft Winds

METAR

CZVL 111900Z AUTO 17005KT 9SM BKN070 OVC085 03/M03 A3027 RMK SLP276

TAF

TAF CZVL 111739Z 1118/1206 18005KT P6SM SCT100 BKN250 TEMPO 1120/1122 P6SM VCSH BKN090 FM112200 17005KT P6SM SCT120 BKN200 RMK FCST BASED ON AUTO OBS. NXT FCST BY 120000Z

Frequencies

Unicom 120.00 MHz CTAF
Tower 120.00 MHz TWR
Ground 120.80 MHz GND
Warning: Do not use this data for real-world aviation or navigation. No guarantee of current accuracy is given.